LOG42YM EGPH-EGPB
Flight info
| Callsign | LOG42YM |
|---|---|
| Flight time | 1h 8m |
| Altitude | 17000 |
| Route | GRICE P600 ADN Y905 WAFIL |
| Aircraft | AT76/M-SDFGIRY/S |
Departure
| Time | 2026-04-23 20:52 |
|---|---|
| Airport | Edinburgh Airport (EGPH) |
Arrival
| Time | 2026-04-23 22:01 |
|---|---|
| Airport | Sumburgh Airport (EGPB) |
| Time | Latitude | Longitude | Altitude | Speed | Heading |
|---|---|---|---|---|---|
| 2026-04-23 20:31 | 55.94704 | -3.36856 | 103 ft | 0 kts | 269° |
| 2026-04-23 20:42 | 55.94704 | -3.36838 | 103 ft | 3 kts | 270° |
| 2026-04-23 20:42 | 55.94703 | -3.36802 | 103 ft | 3 kts | 278° |
| 2026-04-23 20:42 | 55.94698 | -3.36768 | 103 ft | 3 kts | 296° |
| 2026-04-23 20:42 | 55.94688 | -3.36743 | 103 ft | 3 kts | 338° |
| 2026-04-23 20:43 | 55.94680 | -3.36738 | 103 ft | 0 kts | 359° |
| 2026-04-23 20:44 | 55.94693 | -3.36738 | 103 ft | 3 kts | 359° |
| 2026-04-23 20:45 | 55.94724 | -3.36738 | 103 ft | 5 kts | 0° |
| 2026-04-23 20:45 | 55.94761 | -3.36755 | 103 ft | 6 kts | 330° |
| 2026-04-23 20:45 | 55.94807 | -3.36777 | 103 ft | 7 kts | 358° |
| 2026-04-23 20:45 | 55.94857 | -3.36779 | 103 ft | 7 kts | 359° |
| 2026-04-23 20:46 | 55.94907 | -3.36815 | 103 ft | 9 kts | 329° |
| 2026-04-23 20:46 | 55.94922 | -3.36908 | 103 ft | 10 kts | 243° |
| 2026-04-23 20:46 | 55.94884 | -3.37026 | 103 ft | 12 kts | 238° |
| 2026-04-23 20:46 | 55.94835 | -3.37165 | 103 ft | 14 kts | 238° |
| 2026-04-23 20:47 | 55.94785 | -3.37313 | 103 ft | 14 kts | 239° |
| 2026-04-23 20:47 | 55.94734 | -3.37464 | 103 ft | 14 kts | 239° |
| 2026-04-23 20:47 | 55.94681 | -3.37623 | 103 ft | 16 kts | 239° |
| 2026-04-23 20:47 | 55.94622 | -3.37795 | 103 ft | 16 kts | 239° |
| 2026-04-23 20:48 | 55.94565 | -3.37964 | 103 ft | 16 kts | 238° |
| 2026-04-23 20:48 | 55.94507 | -3.38134 | 103 ft | 17 kts | 239° |
| 2026-04-23 20:48 | 55.94447 | -3.38310 | 103 ft | 16 kts | 239° |
| 2026-04-23 20:48 | 55.94389 | -3.38481 | 103 ft | 16 kts | 238° |
| 2026-04-23 20:49 | 55.94334 | -3.38647 | 103 ft | 15 kts | 239° |
| 2026-04-23 20:49 | 55.94282 | -3.38799 | 103 ft | 12 kts | 244° |
| 2026-04-23 20:49 | 55.94314 | -3.38893 | 104 ft | 8 kts | 326° |
| 2026-04-23 20:49 | 55.94328 | -3.38908 | 104 ft | 9 kts | 329° |
| 2026-04-23 20:50 | 55.94395 | -3.38970 | 105 ft | 10 kts | 356° |
| 2026-04-23 20:50 | 55.94438 | -3.38902 | 105 ft | 0 kts | 58° |
| 2026-04-23 20:51 | 55.94480 | -3.38779 | 105 ft | 39 kts | 59° |
| 2026-04-23 20:52 | 55.94731 | -3.38046 | 106 ft | 97 kts | 59° |
| 2026-04-23 20:52 | 55.95144 | -3.36856 | 322 ft | 117 kts | 56° |
| 2026-04-23 20:52 | 55.95615 | -3.35599 | 651 ft | 126 kts | 57° |
| 2026-04-23 20:52 | 55.96077 | -3.34298 | 996 ft | 127 kts | 57° |
| 2026-04-23 20:53 | 55.96652 | -3.33015 | 1301 ft | 138 kts | 45° |
| 2026-04-23 20:53 | 55.97506 | -3.31916 | 1323 ft | 162 kts | 38° |
| 2026-04-23 20:53 | 55.98389 | -3.30558 | 1613 ft | 170 kts | 44° |
| 2026-04-23 20:53 | 55.99262 | -3.29106 | 1985 ft | 173 kts | 44° |
| 2026-04-23 20:54 | 56.00298 | -3.28068 | 2361 ft | 176 kts | 5° |
| 2026-04-23 20:54 | 56.01520 | -3.28273 | 2670 ft | 178 kts | 352° |
| 2026-04-23 20:54 | 56.02739 | -3.28654 | 3068 ft | 178 kts | 349° |
| 2026-04-23 20:54 | 56.03955 | -3.29117 | 3455 ft | 179 kts | 347° |
| 2026-04-23 20:55 | 56.05174 | -3.29651 | 3817 ft | 181 kts | 345° |
| 2026-04-23 20:55 | 56.06234 | -3.30770 | 4172 ft | 181 kts | 305° |
| 2026-04-23 20:55 | 56.06816 | -3.32763 | 4510 ft | 182 kts | 292° |
| 2026-04-23 20:55 | 56.07267 | -3.34885 | 4904 ft | 183 kts | 288° |
| 2026-04-23 20:56 | 56.07523 | -3.36321 | 5175 ft | 183 kts | 285° |
| 2026-04-23 20:56 | 56.07869 | -3.38519 | 5543 ft | 184 kts | 283° |
| 2026-04-23 20:56 | 56.08190 | -3.40737 | 5913 ft | 184 kts | 283° |
| 2026-04-23 20:56 | 56.08504 | -3.42971 | 6269 ft | 186 kts | 283° |
| 2026-04-23 20:57 | 56.08821 | -3.45218 | 6623 ft | 186 kts | 282° |
| 2026-04-23 20:57 | 56.09141 | -3.47470 | 6972 ft | 187 kts | 282° |
| 2026-04-23 20:57 | 56.09458 | -3.49738 | 7286 ft | 188 kts | 282° |
| 2026-04-23 20:57 | 56.09782 | -3.52012 | 7627 ft | 188 kts | 283° |
| 2026-04-23 20:58 | 56.10292 | -3.54173 | 7937 ft | 190 kts | 297° |
| 2026-04-23 20:58 | 56.10947 | -3.56235 | 8259 ft | 191 kts | 299° |
| 2026-04-23 20:58 | 56.11628 | -3.58281 | 8613 ft | 191 kts | 299° |
| 2026-04-23 20:58 | 56.12312 | -3.60329 | 8941 ft | 192 kts | 299° |
| 2026-04-23 20:59 | 56.13001 | -3.62380 | 9244 ft | 192 kts | 299° |
| 2026-04-23 20:59 | 56.13709 | -3.64406 | 9534 ft | 192 kts | 307° |
| 2026-04-23 20:59 | 56.14807 | -3.65806 | 9793 ft | 197 kts | 330° |
| 2026-04-23 20:59 | 56.16063 | -3.66823 | 10097 ft | 199 kts | 336° |
| 2026-04-23 21:00 | 56.17380 | -3.67614 | 10403 ft | 200 kts | 341° |
| 2026-04-23 21:00 | 56.18728 | -3.68267 | 10658 ft | 200 kts | 345° |
| 2026-04-23 21:00 | 56.20108 | -3.68103 | 10868 ft | 206 kts | 23° |
| 2026-04-23 21:00 | 56.21343 | -3.66776 | 11142 ft | 208 kts | 34° |
| 2026-04-23 21:01 | 56.22509 | -3.65227 | 11407 ft | 209 kts | 36° |
| 2026-04-23 21:01 | 56.23654 | -3.63678 | 11673 ft | 209 kts | 36° |
| 2026-04-23 21:01 | 56.24815 | -3.62095 | 11934 ft | 210 kts | 36° |
| 2026-04-23 21:01 | 56.25980 | -3.60506 | 12187 ft | 211 kts | 36° |
| 2026-04-23 21:02 | 56.27156 | -3.58930 | 12438 ft | 211 kts | 35° |
| 2026-04-23 21:02 | 56.28347 | -3.57374 | 12680 ft | 212 kts | 34° |
| 2026-04-23 21:02 | 56.29542 | -3.55820 | 12936 ft | 212 kts | 35° |
| 2026-04-23 21:02 | 56.30747 | -3.54273 | 13181 ft | 213 kts | 34° |
| 2026-04-23 21:03 | 56.31956 | -3.52720 | 13445 ft | 214 kts | 34° |
| 2026-04-23 21:03 | 56.33167 | -3.51159 | 13690 ft | 214 kts | 34° |
| 2026-04-23 21:03 | 56.34381 | -3.49589 | 13938 ft | 215 kts | 34° |
| 2026-04-23 21:03 | 56.35600 | -3.48011 | 14179 ft | 216 kts | 34° |
| 2026-04-23 21:04 | 56.36823 | -3.46430 | 14388 ft | 217 kts | 35° |
| 2026-04-23 21:04 | 56.38049 | -3.44844 | 14592 ft | 217 kts | 34° |
| 2026-04-23 21:04 | 56.39278 | -3.43254 | 14785 ft | 217 kts | 35° |
| 2026-04-23 21:04 | 56.40505 | -3.41662 | 14978 ft | 218 kts | 35° |
| 2026-04-23 21:05 | 56.41739 | -3.40063 | 15191 ft | 218 kts | 35° |
| 2026-04-23 21:05 | 56.42975 | -3.38459 | 15399 ft | 219 kts | 35° |
| 2026-04-23 21:05 | 56.44216 | -3.36854 | 15604 ft | 220 kts | 34° |
| 2026-04-23 21:05 | 56.45475 | -3.35288 | 15796 ft | 220 kts | 34° |
| 2026-04-23 21:06 | 56.46741 | -3.33723 | 15988 ft | 221 kts | 34° |
| 2026-04-23 21:06 | 56.48011 | -3.32157 | 16168 ft | 221 kts | 34° |
| 2026-04-23 21:06 | 56.49281 | -3.30584 | 16351 ft | 221 kts | 34° |
| 2026-04-23 21:06 | 56.50555 | -3.29007 | 16529 ft | 222 kts | 34° |
| 2026-04-23 21:07 | 56.51833 | -3.27422 | 16688 ft | 223 kts | 34° |
| 2026-04-23 21:07 | 56.53116 | -3.25832 | 16849 ft | 223 kts | 34° |
| 2026-04-23 21:07 | 56.54395 | -3.24246 | 17001 ft | 224 kts | 34° |
| 2026-04-23 21:07 | 56.55681 | -3.22649 | 17145 ft | 224 kts | 34° |
| 2026-04-23 21:08 | 56.56954 | -3.21073 | 17313 ft | 225 kts | 34° |
| 2026-04-23 21:08 | 56.58258 | -3.19454 | 17382 ft | 230 kts | 34° |
| 2026-04-23 21:08 | 56.59589 | -3.17791 | 17429 ft | 235 kts | 34° |
| 2026-04-23 21:08 | 56.60955 | -3.16088 | 17439 ft | 241 kts | 34° |
| 2026-04-23 21:09 | 56.62352 | -3.14346 | 17441 ft | 246 kts | 34° |
| 2026-04-23 21:09 | 56.63774 | -3.12568 | 17447 ft | 250 kts | 34° |
| 2026-04-23 21:09 | 56.65219 | -3.10766 | 17448 ft | 254 kts | 34° |
| 2026-04-23 21:09 | 56.66682 | -3.08937 | 17450 ft | 257 kts | 34° |
| 2026-04-23 21:10 | 56.68159 | -3.07087 | 17451 ft | 259 kts | 34° |
| 2026-04-23 21:10 | 56.69646 | -3.05221 | 17453 ft | 261 kts | 34° |
| 2026-04-23 21:10 | 56.71149 | -3.03355 | 17452 ft | 262 kts | 34° |
| 2026-04-23 21:10 | 56.72663 | -3.01489 | 17452 ft | 263 kts | 33° |
| 2026-04-23 21:11 | 56.74186 | -2.99618 | 17447 ft | 265 kts | 33° |
| 2026-04-23 21:11 | 56.75713 | -2.97737 | 17449 ft | 266 kts | 34° |
| 2026-04-23 21:11 | 56.77244 | -2.95840 | 17447 ft | 266 kts | 34° |
| 2026-04-23 21:11 | 56.78768 | -2.93908 | 17447 ft | 267 kts | 34° |
| 2026-04-23 21:12 | 56.80294 | -2.91975 | 17445 ft | 267 kts | 34° |
| 2026-04-23 21:12 | 56.81824 | -2.90040 | 17445 ft | 268 kts | 34° |
| 2026-04-23 21:12 | 56.83355 | -2.88102 | 17442 ft | 268 kts | 34° |
| 2026-04-23 21:12 | 56.84888 | -2.86161 | 17444 ft | 268 kts | 34° |
| 2026-04-23 21:13 | 56.86421 | -2.84217 | 17447 ft | 269 kts | 34° |
| 2026-04-23 21:13 | 56.87958 | -2.82273 | 17445 ft | 269 kts | 34° |
| 2026-04-23 21:13 | 56.89491 | -2.80332 | 17443 ft | 269 kts | 33° |
| 2026-04-23 21:13 | 56.91033 | -2.78400 | 17447 ft | 269 kts | 34° |
| 2026-04-23 21:14 | 56.92564 | -2.76433 | 17446 ft | 269 kts | 34° |
| 2026-04-23 21:14 | 56.94100 | -2.74472 | 17450 ft | 269 kts | 34° |
| 2026-04-23 21:14 | 56.95640 | -2.72511 | 17447 ft | 269 kts | 33° |
| 2026-04-23 21:14 | 56.97156 | -2.70579 | 17447 ft | 269 kts | 34° |
| 2026-04-23 21:15 | 56.98692 | -2.68612 | 17445 ft | 269 kts | 34° |
| 2026-04-23 21:15 | 57.00229 | -2.66645 | 17444 ft | 269 kts | 33° |
| 2026-04-23 21:15 | 57.01764 | -2.64676 | 17450 ft | 269 kts | 33° |
| 2026-04-23 21:15 | 57.03302 | -2.62709 | 17452 ft | 270 kts | 33° |
| 2026-04-23 21:16 | 57.04858 | -2.60711 | 17456 ft | 270 kts | 33° |
| 2026-04-23 21:16 | 57.06399 | -2.58736 | 17446 ft | 270 kts | 33° |
| 2026-04-23 21:16 | 57.07939 | -2.56754 | 17452 ft | 270 kts | 33° |
| 2026-04-23 21:16 | 57.09480 | -2.54772 | 17451 ft | 271 kts | 34° |
| 2026-04-23 21:17 | 57.11023 | -2.52786 | 17451 ft | 271 kts | 34° |
| 2026-04-23 21:17 | 57.12545 | -2.50821 | 17450 ft | 271 kts | 33° |
| 2026-04-23 21:17 | 57.14090 | -2.48831 | 17448 ft | 271 kts | 33° |
| 2026-04-23 21:17 | 57.15633 | -2.46833 | 17454 ft | 271 kts | 33° |
| 2026-04-23 21:18 | 57.17178 | -2.44839 | 17453 ft | 271 kts | 33° |
| 2026-04-23 21:18 | 57.18725 | -2.42838 | 17453 ft | 272 kts | 33° |
| 2026-04-23 21:18 | 57.20270 | -2.40831 | 17449 ft | 272 kts | 33° |
| 2026-04-23 21:18 | 57.21817 | -2.38825 | 17452 ft | 272 kts | 33° |
| 2026-04-23 21:19 | 57.23364 | -2.36823 | 17457 ft | 272 kts | 33° |
| 2026-04-23 21:19 | 57.24909 | -2.34816 | 17460 ft | 272 kts | 33° |
| 2026-04-23 21:19 | 57.26455 | -2.32806 | 17456 ft | 272 kts | 33° |
| 2026-04-23 21:19 | 57.28000 | -2.30793 | 17453 ft | 272 kts | 33° |
| 2026-04-23 21:20 | 57.29546 | -2.28777 | 17456 ft | 272 kts | 33° |
| 2026-04-23 21:20 | 57.31095 | -2.26769 | 17459 ft | 271 kts | 33° |
| 2026-04-23 21:20 | 57.32531 | -2.24502 | 17457 ft | 273 kts | 43° |
| 2026-04-23 21:20 | 57.33852 | -2.21973 | 17453 ft | 274 kts | 45° |
| 2026-04-23 21:21 | 57.35163 | -2.19417 | 17453 ft | 274 kts | 45° |
| 2026-04-23 21:21 | 57.36495 | -2.16897 | 17463 ft | 274 kts | 43° |
| 2026-04-23 21:21 | 57.37858 | -2.14434 | 17457 ft | 274 kts | 43° |
| 2026-04-23 21:21 | 57.39223 | -2.11972 | 17460 ft | 274 kts | 42° |
| 2026-04-23 21:22 | 57.40586 | -2.09512 | 17462 ft | 274 kts | 43° |
| 2026-04-23 21:22 | 57.41951 | -2.07045 | 17462 ft | 274 kts | 43° |
| 2026-04-23 21:22 | 57.43319 | -2.04578 | 17465 ft | 274 kts | 43° |
| 2026-04-23 21:22 | 57.44685 | -2.02106 | 17466 ft | 274 kts | 43° |
| 2026-04-23 21:23 | 57.46050 | -1.99631 | 17467 ft | 274 kts | 43° |
| 2026-04-23 21:23 | 57.47415 | -1.97156 | 17471 ft | 274 kts | 43° |
| 2026-04-23 21:23 | 57.48780 | -1.94679 | 17475 ft | 274 kts | 43° |
| 2026-04-23 21:23 | 57.50143 | -1.92197 | 17476 ft | 274 kts | 43° |
| 2026-04-23 21:24 | 57.51506 | -1.89713 | 17478 ft | 274 kts | 43° |
| 2026-04-23 21:24 | 57.52870 | -1.87231 | 17476 ft | 274 kts | 43° |
| 2026-04-23 21:24 | 57.54233 | -1.84743 | 17477 ft | 274 kts | 43° |
| 2026-04-23 21:24 | 57.55661 | -1.82422 | 17469 ft | 271 kts | 27° |
| 2026-04-23 21:25 | 57.57405 | -1.81276 | 17479 ft | 265 kts | 9° |
| 2026-04-23 21:25 | 57.59223 | -1.80785 | 17476 ft | 263 kts | 3° |
| 2026-04-23 21:25 | 57.61047 | -1.80490 | 17477 ft | 263 kts | 2° |
| 2026-04-23 21:25 | 57.62875 | -1.80201 | 17479 ft | 264 kts | 2° |
| 2026-04-23 21:26 | 57.64679 | -1.79903 | 17478 ft | 264 kts | 3° |
| 2026-04-23 21:26 | 57.66509 | -1.79533 | 17475 ft | 265 kts | 4° |
| 2026-04-23 21:26 | 57.68340 | -1.79128 | 17476 ft | 265 kts | 4° |
| 2026-04-23 21:26 | 57.70174 | -1.78732 | 17477 ft | 265 kts | 4° |
| 2026-04-23 21:27 | 57.72030 | -1.78333 | 17479 ft | 265 kts | 4° |
| 2026-04-23 21:27 | 57.73865 | -1.77938 | 17482 ft | 266 kts | 4° |
| 2026-04-23 21:27 | 57.75677 | -1.77547 | 17478 ft | 266 kts | 4° |
| 2026-04-23 21:27 | 57.77515 | -1.77149 | 17480 ft | 266 kts | 4° |
| 2026-04-23 21:28 | 57.79353 | -1.76751 | 17477 ft | 266 kts | 4° |
| 2026-04-23 21:28 | 57.81193 | -1.76352 | 17479 ft | 266 kts | 4° |
| 2026-04-23 21:28 | 57.83032 | -1.75952 | 17479 ft | 266 kts | 4° |
| 2026-04-23 21:28 | 57.84873 | -1.75552 | 17479 ft | 266 kts | 4° |
| 2026-04-23 21:29 | 57.86714 | -1.75151 | 17479 ft | 266 kts | 3° |
| 2026-04-23 21:29 | 57.88555 | -1.74750 | 17480 ft | 266 kts | 3° |
| 2026-04-23 21:29 | 57.90396 | -1.74349 | 17480 ft | 266 kts | 3° |
| 2026-04-23 21:29 | 57.92243 | -1.73946 | 17479 ft | 266 kts | 3° |
| 2026-04-23 21:30 | 57.94085 | -1.73545 | 17478 ft | 266 kts | 3° |
| 2026-04-23 21:30 | 57.95925 | -1.73142 | 17478 ft | 266 kts | 3° |
| 2026-04-23 21:30 | 57.97768 | -1.72739 | 17476 ft | 266 kts | 3° |
| 2026-04-23 21:30 | 57.99609 | -1.72335 | 17476 ft | 267 kts | 3° |
| 2026-04-23 21:31 | 58.01452 | -1.71930 | 17478 ft | 267 kts | 3° |
| 2026-04-23 21:31 | 58.03294 | -1.71526 | 17479 ft | 267 kts | 3° |
| 2026-04-23 21:31 | 58.05139 | -1.71121 | 17477 ft | 267 kts | 3° |
| 2026-04-23 21:31 | 58.06986 | -1.70714 | 17476 ft | 267 kts | 3° |
| 2026-04-23 21:32 | 58.08829 | -1.70308 | 17480 ft | 267 kts | 3° |
| 2026-04-23 21:32 | 58.10672 | -1.69901 | 17482 ft | 267 kts | 3° |
| 2026-04-23 21:32 | 58.12518 | -1.69494 | 17481 ft | 267 kts | 3° |
| 2026-04-23 21:32 | 58.14342 | -1.69090 | 17481 ft | 267 kts | 3° |
| 2026-04-23 21:33 | 58.16188 | -1.68681 | 17481 ft | 267 kts | 3° |
| 2026-04-23 21:33 | 58.18035 | -1.68272 | 17480 ft | 267 kts | 3° |
| 2026-04-23 21:33 | 58.19882 | -1.67862 | 17479 ft | 267 kts | 3° |
| 2026-04-23 21:33 | 58.21728 | -1.67455 | 17483 ft | 267 kts | 3° |
| 2026-04-23 21:34 | 58.23572 | -1.67045 | 17480 ft | 267 kts | 3° |
| 2026-04-23 21:34 | 58.25420 | -1.66634 | 17478 ft | 267 kts | 2° |
| 2026-04-23 21:34 | 58.27265 | -1.66225 | 17478 ft | 267 kts | 2° |
| 2026-04-23 21:34 | 58.29112 | -1.65813 | 17481 ft | 267 kts | 2° |
| 2026-04-23 21:35 | 58.30960 | -1.65401 | 17481 ft | 267 kts | 2° |
| 2026-04-23 21:35 | 58.32806 | -1.64992 | 17478 ft | 267 kts | 2° |
| 2026-04-23 21:35 | 58.34652 | -1.64588 | 17483 ft | 267 kts | 2° |
| 2026-04-23 21:35 | 58.36499 | -1.64179 | 17481 ft | 267 kts | 2° |
| 2026-04-23 21:36 | 58.40193 | -1.63358 | 17483 ft | 268 kts | 3° |
| 2026-04-23 21:36 | 58.42040 | -1.62927 | 17479 ft | 267 kts | 2° |
| 2026-04-23 21:36 | 58.43889 | -1.62511 | 17486 ft | 267 kts | 2° |
| 2026-04-23 21:37 | 58.45738 | -1.62095 | 17483 ft | 267 kts | 2° |
| 2026-04-23 21:37 | 58.47587 | -1.61678 | 17474 ft | 267 kts | 2° |
| 2026-04-23 21:37 | 58.49434 | -1.61262 | 17479 ft | 267 kts | 2° |
| 2026-04-23 21:37 | 58.51282 | -1.60845 | 17484 ft | 267 kts | 2° |
| 2026-04-23 21:38 | 58.53131 | -1.60427 | 17484 ft | 267 kts | 2° |
| 2026-04-23 21:38 | 58.54978 | -1.60008 | 17480 ft | 267 kts | 2° |
| 2026-04-23 21:38 | 58.56826 | -1.59589 | 17485 ft | 267 kts | 2° |
| 2026-04-23 21:38 | 58.58671 | -1.59170 | 17484 ft | 267 kts | 2° |
| 2026-04-23 21:39 | 58.60519 | -1.58750 | 17487 ft | 267 kts | 2° |
| 2026-04-23 21:39 | 58.62366 | -1.58330 | 17480 ft | 267 kts | 2° |
| 2026-04-23 21:39 | 58.64214 | -1.57910 | 17482 ft | 267 kts | 2° |
| 2026-04-23 21:39 | 58.66058 | -1.57492 | 17484 ft | 267 kts | 2° |
| 2026-04-23 21:40 | 58.67904 | -1.57071 | 17485 ft | 267 kts | 2° |
| 2026-04-23 21:40 | 58.69750 | -1.56651 | 17483 ft | 267 kts | 2° |
| 2026-04-23 21:40 | 58.71596 | -1.56231 | 17477 ft | 267 kts | 2° |
| 2026-04-23 21:40 | 58.73440 | -1.55807 | 17485 ft | 267 kts | 2° |
| 2026-04-23 21:41 | 58.75286 | -1.55387 | 17486 ft | 267 kts | 1° |
| 2026-04-23 21:41 | 58.77131 | -1.54961 | 17486 ft | 267 kts | 2° |
| 2026-04-23 21:41 | 58.78979 | -1.54538 | 17480 ft | 267 kts | 2° |
| 2026-04-23 21:41 | 58.80824 | -1.54117 | 17479 ft | 267 kts | 2° |
| 2026-04-23 21:42 | 58.82673 | -1.53692 | 17484 ft | 267 kts | 1° |
| 2026-04-23 21:42 | 58.84495 | -1.53284 | 17482 ft | 267 kts | 1° |
| 2026-04-23 21:42 | 58.86342 | -1.52864 | 17479 ft | 267 kts | 1° |
| 2026-04-23 21:42 | 58.88188 | -1.52437 | 17484 ft | 267 kts | 1° |
| 2026-04-23 21:43 | 58.90036 | -1.52006 | 17486 ft | 268 kts | 2° |
| 2026-04-23 21:43 | 58.91884 | -1.51572 | 17483 ft | 267 kts | 1° |
| 2026-04-23 21:43 | 58.93731 | -1.51147 | 17485 ft | 267 kts | 1° |
| 2026-04-23 21:43 | 58.95579 | -1.50720 | 17486 ft | 267 kts | 1° |
| 2026-04-23 21:44 | 58.97423 | -1.50292 | 17484 ft | 268 kts | 1° |
| 2026-04-23 21:44 | 58.99271 | -1.49862 | 17479 ft | 268 kts | 1° |
| 2026-04-23 21:44 | 59.01122 | -1.49431 | 17480 ft | 268 kts | 1° |
| 2026-04-23 21:44 | 59.03029 | -1.48984 | 17099 ft | 282 kts | 1° |
| 2026-04-23 21:45 | 59.05022 | -1.48520 | 16697 ft | 294 kts | 2° |
| 2026-04-23 21:45 | 59.06409 | -1.48196 | 16419 ft | 300 kts | 2° |
| 2026-04-23 21:45 | 59.08513 | -1.47701 | 16002 ft | 308 kts | 2° |
| 2026-04-23 21:45 | 59.10662 | -1.47200 | 15608 ft | 313 kts | 2° |
| 2026-04-23 21:46 | 59.12779 | -1.46704 | 15333 ft | 307 kts | 2° |
| 2026-04-23 21:46 | 59.14883 | -1.46183 | 14911 ft | 302 kts | 2° |
| 2026-04-23 21:46 | 59.16957 | -1.45648 | 14496 ft | 299 kts | 2° |
| 2026-04-23 21:46 | 59.19006 | -1.45138 | 14063 ft | 295 kts | 1° |
| 2026-04-23 21:47 | 59.21047 | -1.44653 | 13610 ft | 294 kts | 2° |
| 2026-04-23 21:47 | 59.23075 | -1.44174 | 13170 ft | 292 kts | 2° |
| 2026-04-23 21:47 | 59.25085 | -1.43696 | 12741 ft | 290 kts | 2° |
| 2026-04-23 21:47 | 59.27081 | -1.43228 | 12327 ft | 288 kts | 2° |
| 2026-04-23 21:48 | 59.29058 | -1.42758 | 11917 ft | 285 kts | 2° |
| 2026-04-23 21:48 | 59.31020 | -1.42294 | 11523 ft | 283 kts | 2° |
| 2026-04-23 21:48 | 59.32968 | -1.41832 | 11192 ft | 279 kts | 2° |
| 2026-04-23 21:48 | 59.34871 | -1.41380 | 10861 ft | 275 kts | 2° |
| 2026-04-23 21:49 | 59.36774 | -1.40933 | 10437 ft | 276 kts | 2° |
| 2026-04-23 21:49 | 59.38666 | -1.40480 | 10143 ft | 271 kts | 3° |
| 2026-04-23 21:49 | 59.40534 | -1.40037 | 9741 ft | 270 kts | 3° |
| 2026-04-23 21:49 | 59.42394 | -1.39596 | 9355 ft | 269 kts | 3° |
| 2026-04-23 21:50 | 59.44249 | -1.39153 | 8972 ft | 268 kts | 4° |
| 2026-04-23 21:50 | 59.46098 | -1.38711 | 8601 ft | 267 kts | 4° |
| 2026-04-23 21:50 | 59.47938 | -1.38269 | 8239 ft | 266 kts | 4° |
| 2026-04-23 21:50 | 59.49767 | -1.37832 | 8024 ft | 260 kts | 4° |
| 2026-04-23 21:51 | 59.51556 | -1.37404 | 7659 ft | 261 kts | 4° |
| 2026-04-23 21:51 | 59.53361 | -1.36977 | 7252 ft | 263 kts | 5° |
| 2026-04-23 21:51 | 59.55160 | -1.37044 | 6838 ft | 258 kts | 342° |
| 2026-04-23 21:51 | 59.56791 | -1.38468 | 6406 ft | 256 kts | 329° |
| 2026-04-23 21:52 | 59.58313 | -1.40260 | 5974 ft | 253 kts | 327° |
| 2026-04-23 21:52 | 59.59802 | -1.42074 | 5546 ft | 250 kts | 327° |
| 2026-04-23 21:52 | 59.61288 | -1.43836 | 5118 ft | 248 kts | 328° |
| 2026-04-23 21:52 | 59.62786 | -1.45523 | 4679 ft | 247 kts | 329° |
| 2026-04-23 21:53 | 59.64280 | -1.47175 | 4254 ft | 246 kts | 329° |
| 2026-04-23 21:53 | 59.65771 | -1.48831 | 3814 ft | 245 kts | 329° |
| 2026-04-23 21:53 | 59.67248 | -1.50476 | 3381 ft | 244 kts | 329° |
| 2026-04-23 21:53 | 59.68721 | -1.52122 | 2978 ft | 242 kts | 329° |
| 2026-04-23 21:54 | 59.70162 | -1.53736 | 2772 ft | 231 kts | 330° |
| 2026-04-23 21:54 | 59.71524 | -1.55257 | 2677 ft | 218 kts | 330° |
| 2026-04-23 21:54 | 59.72815 | -1.56702 | 2636 ft | 209 kts | 330° |
| 2026-04-23 21:54 | 59.74089 | -1.58136 | 2618 ft | 218 kts | 329° |
| 2026-04-23 21:55 | 59.75413 | -1.59619 | 2608 ft | 219 kts | 330° |
| 2026-04-23 21:55 | 59.76740 | -1.61108 | 2607 ft | 219 kts | 330° |
| 2026-04-23 21:55 | 59.78070 | -1.62606 | 2601 ft | 219 kts | 330° |
| 2026-04-23 21:55 | 59.79456 | -1.63720 | 2603 ft | 215 kts | 351° |
| 2026-04-23 21:56 | 59.80952 | -1.63991 | 2598 ft | 216 kts | 355° |
| 2026-04-23 21:56 | 59.82452 | -1.64202 | 2600 ft | 216 kts | 355° |
| 2026-04-23 21:56 | 59.83941 | -1.64316 | 2444 ft | 203 kts | 7° |
| 2026-04-23 21:56 | 59.85078 | -1.63045 | 2278 ft | 185 kts | 50° |
| 2026-04-23 21:57 | 59.85768 | -1.60923 | 2179 ft | 181 kts | 62° |
| 2026-04-23 21:57 | 59.86254 | -1.58650 | 2127 ft | 177 kts | 70° |
| 2026-04-23 21:57 | 59.86590 | -1.56293 | 2118 ft | 176 kts | 76° |
| 2026-04-23 21:57 | 59.86810 | -1.53896 | 2110 ft | 174 kts | 81° |
| 2026-04-23 21:58 | 59.86950 | -1.51649 | 2038 ft | 158 kts | 82° |
| 2026-04-23 21:58 | 59.87066 | -1.49479 | 1861 ft | 159 kts | 83° |
| 2026-04-23 21:58 | 59.87176 | -1.47305 | 1675 ft | 157 kts | 83° |
| 2026-04-23 21:58 | 59.87290 | -1.45142 | 1476 ft | 157 kts | 82° |
| 2026-04-23 21:59 | 59.87410 | -1.43013 | 1267 ft | 153 kts | 82° |
| 2026-04-23 21:59 | 59.87526 | -1.40977 | 1060 ft | 141 kts | 82° |
| 2026-04-23 21:59 | 59.87630 | -1.39139 | 877 ft | 127 kts | 82° |
| 2026-04-23 22:00 | 59.87757 | -1.35880 | 587 ft | 112 kts | 82° |
| 2026-04-23 22:00 | 59.87851 | -1.34354 | 509 ft | 108 kts | 82° |
| 2026-04-23 22:00 | 59.87946 | -1.32889 | 390 ft | 109 kts | 81° |
| 2026-04-23 22:00 | 59.88029 | -1.31396 | 174 ft | 106 kts | 81° |
| 2026-04-23 22:01 | 59.88114 | -1.29997 | 45 ft | 94 kts | 81° |
| 2026-04-23 22:01 | 59.88152 | -1.29239 | 42 ft | 6 kts | 98° |
| 2026-04-23 22:01 | 59.88099 | -1.29228 | 40 ft | 10 kts | 208° |
| 2026-04-23 22:01 | 59.88015 | -1.29331 | 40 ft | 14 kts | 216° |
| 2026-04-23 22:02 | 59.87963 | -1.29354 | 40 ft | 6 kts | 147° |
| 2026-04-23 22:02 | 59.87958 | -1.29341 | 40 ft | 0 kts | 128° |